Time;durP1;ratioP1;P1;durP2;ratioP2;P2;SDS_P1;SDS_P2;PMS_P1;PMS_P2;Temp;Humidity;BMP_temperature;BMP_pressure;BME280_temperature;BME280_humidity;BME280_pressure;Samples;Min_cycle;Max_cycle;Signal;HPM_P1;HPM_P2
2023/10/29 00:00:10;;;;;;;6.65;3.03;;;11.40;99.90;;;;;;5068650;28;20082;-36
2023/10/29 00:02:36;;;;;;;4.38;2.38;;;11.40;99.90;;;;;;5067809;28;20490;-35
2023/10/29 00:05:02;;;;;;;5.05;2.70;;;11.40;99.90;;;;;;5068426;28;20048;-39
2023/10/29 00:07:28;;;;;;;4.00;2.72;;;11.40;99.90;;;;;;5068027;28;20071;-35
2023/10/29 00:09:54;;;;;;;3.60;2.67;;;11.40;99.90;;;;;;5052024;28;20562;-35
2023/10/29 00:12:20;;;;;;;4.78;2.88;;;11.40;99.90;;;;;;5050673;28;20140;-35
2023/10/29 00:14:46;;;;;;;4.88;2.75;;;11.40;99.90;;;;;;5050266;28;20056;-36
2023/10/29 00:17:12;;;;;;;4.65;2.70;;;11.40;99.90;;;;;;5068524;28;20485;-34
2023/10/29 00:19:37;;;;;;;5.00;2.28;;;11.50;99.90;;;;;;5068101;28;20040;-34
2023/10/29 00:22:03;;;;;;;4.03;2.67;;;11.50;99.90;;;;;;5068644;28;20048;-35
2023/10/29 00:24:29;;;;;;;3.47;2.47;;;11.50;99.90;;;;;;5069083;28;20044;-35
2023/10/29 00:26:55;;;;;;;4.22;2.55;;;11.50;99.90;;;;;;5088506;28;20151;-35
2023/10/29 00:29:21;;;;;;;6.63;2.80;;;11.50;99.90;;;;;;5088634;28;20060;-34
2023/10/29 00:31:47;;;;;;;4.45;2.88;;;11.60;99.90;;;;;;5087892;28;20044;-35
2023/10/29 00:34:12;;;;;;;3.80;2.50;;;11.60;99.90;;;;;;5090475;28;20051;-35
2023/10/29 00:36:38;;;;;;;4.15;2.90;;;11.60;99.90;;;;;;5091497;28;20044;-34
2023/10/29 00:39:04;;;;;;;4.50;2.78;;;11.60;99.90;;;;;;5092855;28;20059;-35
2023/10/29 00:41:30;;;;;;;4.90;2.50;;;11.60;99.90;;;;;;5092391;28;20417;-36
2023/10/29 00:43:56;;;;;;;4.72;2.90;;;11.60;99.90;;;;;;5091645;28;20198;-35
2023/10/29 00:46:23;;;;;;;2.95;2.20;;;11.60;99.90;;;;;;5092794;28;20058;-34
2023/10/29 00:48:49;;;;;;;5.68;2.63;;;11.60;99.90;;;;;;5091389;28;20067;-34
2023/10/29 00:51:15;;;;;;;4.32;2.40;;;11.70;99.90;;;;;;5092417;28;20405;-34
2023/10/29 00:53:41;;;;;;;3.63;2.10;;;11.70;99.90;;;;;;5091438;28;20044;-34
2023/10/29 00:56:08;;;;;;;3.30;2.30;;;11.70;99.90;;;;;;5092469;28;20110;-34
2023/10/29 00:58:35;;;;;;;4.10;2.03;;;11.70;99.90;;;;;;5073345;28;20075;-34
2023/10/29 01:01:01;;;;;;;6.85;2.20;;;11.80;99.90;;;;;;5092415;28;20055;-34
2023/10/29 01:03:27;;;;;;;3.90;2.20;;;11.80;99.90;;;;;;5091988;28;20044;-34
2023/10/29 01:05:52;;;;;;;5.13;1.83;;;11.80;99.90;;;;;;5090710;28;20043;-34
2023/10/29 01:08:19;;;;;;;3.28;1.50;;;11.90;99.90;;;;;;5078788;28;20052;-34
2023/10/29 01:10:45;;;;;;;2.33;1.40;;;11.90;99.90;;;;;;5088926;28;20497;-34
2023/10/29 01:13:10;;;;;;;3.20;1.10;;;12.00;99.90;;;;;;5084011;28;20059;-34
2023/10/29 01:15:36;;;;;;;3.58;1.65;;;12.00;99.90;;;;;;5089181;28;20055;-34
2023/10/29 01:18:02;;;;;;;3.67;1.33;;;12.10;99.90;;;;;;5089930;28;20055;-34
2023/10/29 01:20:28;;;;;;;3.35;1.17;;;12.10;99.90;;;;;;5091683;28;20055;-35
2023/10/29 01:22:54;;;;;;;4.35;1.20;;;12.10;99.90;;;;;;5083169;28;20048;-35
2023/10/29 01:25:19;;;;;;;3.63;1.20;;;12.20;99.90;;;;;;5078044;28;20049;-35
2023/10/29 01:27:45;;;;;;;1.75;0.93;;;12.20;99.90;;;;;;5052211;28;20060;-36
2023/10/29 01:30:11;;;;;;;2.17;0.88;;;12.20;99.90;;;;;;5070845;28;20060;-36
2023/10/29 01:32:38;;;;;;;3.10;0.90;;;12.30;99.90;;;;;;5070546;28;20044;-35
2023/10/29 01:35:04;;;;;;;3.25;1.17;;;12.30;99.90;;;;;;5070035;28;20053;-36
2023/10/29 01:37:30;;;;;;;1.63;0.70;;;12.40;99.90;;;;;;5071357;28;20498;-35
2023/10/29 01:39:56;;;;;;;2.63;0.55;;;12.30;99.90;;;;;;5070541;28;20048;-35
2023/10/29 01:42:22;;;;;;;1.88;0.60;;;12.40;99.90;;;;;;5071251;28;20045;-35
2023/10/29 01:44:47;;;;;;;1.48;0.50;;;12.40;99.90;;;;;;5070542;28;20457;-35
2023/10/29 01:47:13;;;;;;;3.30;0.50;;;12.40;99.90;;;;;;5070730;28;20053;-35
2023/10/29 01:49:39;;;;;;;2.55;0.70;;;12.50;99.90;;;;;;5070712;28;20055;-35
2023/10/29 01:52:05;;;;;;;2.83;0.57;;;12.60;99.90;;;;;;5070926;28;20359;-35
2023/10/29 01:54:31;;;;;;;1.23;0.40;;;12.60;99.90;;;;;;5074857;28;20048;-35
2023/10/29 01:56:56;;;;;;;2.92;0.50;;;12.60;99.90;;;;;;5048140;28;20047;-35
2023/10/29 01:59:22;;;;;;;2.05;0.45;;;12.70;99.90;;;;;;5070709;28;20040;-35
2023/10/29 02:01:50;;;;;;;1.80;0.40;;;12.70;99.90;;;;;;5069599;28;20114;-35
2023/10/29 02:04:16;;;;;;;1.80;0.60;;;12.70;99.90;;;;;;5070225;28;20052;-35
2023/10/29 02:06:41;;;;;;;1.13;0.40;;;12.70;99.90;;;;;;5070576;28;20070;-35
2023/10/29 02:09:10;;;;;;;1.65;0.47;;;12.70;99.90;;;;;;5070600;28;20053;-36
2023/10/29 02:11:39;;;;;;;1.30;0.50;;;12.70;99.90;;;;;;5070706;28;20064;-36
2023/10/29 02:14:06;;;;;;;2.15;0.50;;;12.60;99.90;;;;;;5050250;28;20072;-35
2023/10/29 02:16:31;;;;;;;1.65;0.40;;;12.60;99.90;;;;;;5069735;28;20044;-35
2023/10/29 02:18:58;;;;;;;0.57;0.30;;;12.60;99.90;;;;;;5069619;28;20044;-36
2023/10/29 02:21:24;;;;;;;2.20;0.50;;;12.60;99.90;;;;;;5070226;28;20138;-36
2023/10/29 02:23:53;;;;;;;4.22;0.47;;;12.60;99.90;;;;;;5069331;28;20051;-35
2023/10/29 02:26:19;;;;;;;2.22;0.50;;;12.60;99.90;;;;;;5085398;28;20127;-36
2023/10/29 02:28:45;;;;;;;0.85;0.30;;;12.60;99.90;;;;;;5089847;28;20466;-35
2023/10/29 02:31:18;;;;;;;1.15;0.40;;;12.60;99.90;;;;;;5090246;28;20079;-35
2023/10/29 02:33:44;;;;;;;3.45;0.50;;;12.60;99.90;;;;;;5088156;28;20075;-35
2023/10/29 02:36:10;;;;;;;2.38;0.40;;;12.60;99.90;;;;;;5090365;28;20505;-35
2023/10/29 02:38:40;;;;;;;2.17;0.30;;;12.60;99.90;;;;;;5090273;28;20464;-35
2023/10/29 02:41:06;;;;;;;3.67;0.40;;;12.60;99.90;;;;;;5089834;28;20052;-35
2023/10/29 02:43:32;;;;;;;2.53;0.50;;;12.60;99.90;;;;;;5089747;28;20056;-35
2023/10/29 02:45:58;;;;;;;3.67;0.50;;;12.60;99.90;;;;;;5089366;28;20052;-35
2023/10/29 02:48:24;;;;;;;2.92;0.60;;;12.60;99.90;;;;;;5090245;28;20427;-38
2023/10/29 02:50:51;;;;;;;1.55;0.50;;;12.70;99.90;;;;;;5088946;28;20054;-35
2023/10/29 02:53:17;;;;;;;0.57;0.30;;;12.70;99.90;;;;;;5090029;28;20060;-35
2023/10/29 02:55:43;;;;;;;2.55;0.40;;;12.70;99.90;;;;;;5071017;28;20044;-35
2023/10/29 02:58:09;;;;;;;1.45;0.40;;;12.70;99.90;;;;;;5089049;28;20128;-35
2023/10/29 03:00:34;;;;;;;1.27;0.25;;;12.70;99.90;;;;;;5088464;28;20048;-35
2023/10/29 03:03:00;;;;;;;1.85;0.30;;;12.80;99.90;;;;;;5087610;28;20048;-35
2023/10/29 03:05:25;;;;;;;2.28;0.40;;;12.80;99.90;;;;;;5088827;28;20064;-35
2023/10/29 03:07:51;;;;;;;2.17;0.40;;;12.80;99.90;;;;;;5070625;28;20051;-35
2023/10/29 03:10:17;;;;;;;0.88;0.40;;;12.80;99.90;;;;;;5089758;28;20048;-34
2023/10/29 03:12:42;;;;;;;2.70;0.70;;;12.80;99.90;;;;;;5089023;28;20747;-35
2023/10/29 03:15:08;;;;;;;2.80;0.52;;;12.80;99.90;;;;;;5089113;28;20059;-35
2023/10/29 03:17:34;;;;;;;3.72;0.43;;;12.80;99.90;;;;;;5088248;28;20414;-35
2023/10/29 03:20:00;;;;;;;1.35;0.35;;;12.80;99.90;;;;;;5088544;28;20044;-35
2023/10/29 03:22:25;;;;;;;2.15;0.50;;;12.70;99.90;;;;;;5089451;28;20072;-35
2023/10/29 03:24:51;;;;;;;1.27;0.40;;;12.70;99.90;;;;;;5088264;28;20053;-35
2023/10/29 03:27:17;;;;;;;3.15;0.20;;;12.70;99.90;;;;;;5055095;28;20463;-35
2023/10/29 03:29:42;;;;;;;3.00;0.50;;;12.70;99.90;;;;;;5089019;28;20044;-35
2023/10/29 03:32:08;;;;;;;2.03;0.30;;;12.70;99.90;;;;;;5088140;28;20135;-35
2023/10/29 03:34:33;;;;;;;1.52;0.30;;;12.70;99.90;;;;;;5089011;28;20410;-36
2023/10/29 03:36:59;;;;;;;1.95;0.40;;;12.70;99.90;;;;;;5088213;28;20507;-37
2023/10/29 03:39:26;;;;;;;1.25;0.40;;;12.70;99.90;;;;;;5089477;28;20039;-34
2023/10/29 03:41:51;;;;;;;2.63;0.60;;;12.70;99.90;;;;;;5088511;28;20048;-34
2023/10/29 03:44:17;;;;;;;2.03;0.35;;;12.70;99.90;;;;;;5088961;28;20044;-34
2023/10/29 03:46:43;;;;;;;2.05;0.30;;;12.70;99.90;;;;;;5089411;28;20416;-35
2023/10/29 03:49:08;;;;;;;2.33;0.43;;;12.70;99.90;;;;;;5068482;28;20064;-35
2023/10/29 03:51:42;;;;;;;1.42;0.40;;;12.70;99.90;;;;;;5088910;28;20048;-35
2023/10/29 03:54:08;;;;;;;2.15;0.45;;;12.70;99.90;;;;;;5088115;28;20401;-36
2023/10/29 03:56:33;;;;;;;0.55;0.38;;;12.70;99.90;;;;;;5089196;28;20040;-36
2023/10/29 03:58:59;;;;;;;2.03;0.40;;;12.80;99.90;;;;;;5070273;28;20044;-35
2023/10/29 04:01:24;;;;;;;1.85;0.50;;;12.80;99.90;;;;;;5087882;28;20553;-35
2023/10/29 04:03:50;;;;;;;1.95;0.40;;;12.80;99.90;;;;;;5088504;28;20573;-34
2023/10/29 04:06:16;;;;;;;1.85;0.60;;;12.90;99.90;;;;;;5088632;28;20052;-35
2023/10/29 04:08:41;;;;;;;2.80;0.50;;;12.90;99.90;;;;;;5087935;28;20048;-35
2023/10/29 04:11:08;;;;;;;2.22;0.20;;;12.90;99.90;;;;;;5087911;28;20052;-36
2023/10/29 04:13:33;;;;;;;1.40;0.30;;;12.80;99.90;;;;;;5088939;28;20131;-36
2023/10/29 04:15:59;;;;;;;2.47;0.30;;;12.40;99.90;;;;;;5088169;28;20051;-36
2023/10/29 04:18:27;;;;;;;0.40;0.10;;;12.00;99.90;;;;;;5094160;28;20412;-36
2023/10/29 04:20:54;;;;;;;0.65;0.10;;;11.70;99.90;;;;;;5068949;28;20048;-35
2023/10/29 04:23:20;;;;;;;0.88;0.10;;;11.50;99.90;;;;;;5088253;28;20051;-35
2023/10/29 04:25:46;;;;;;;0.77;0.10;;;11.50;99.90;;;;;;5086643;28;20413;-35
2023/10/29 04:28:11;;;;;;;1.10;0.10;;;11.50;99.90;;;;;;5072094;28;20056;-35
2023/10/29 04:30:37;;;;;;;0.40;0.10;;;11.50;99.90;;;;;;5085798;28;20057;-35
2023/10/29 04:33:03;;;;;;;2.15;0.30;;;11.40;99.90;;;;;;5081073;28;20118;-36
2023/10/29 04:35:32;;;;;;;1.85;0.20;;;11.40;99.90;;;;;;5052026;28;20045;-35
2023/10/29 04:37:57;;;;;;;1.42;0.20;;;11.40;99.90;;;;;;5075939;28;20391;-35
2023/10/29 04:40:23;;;;;;;1.08;0.10;;;11.50;99.90;;;;;;5076049;28;20051;-35
2023/10/29 04:42:49;;;;;;;3.80;0.30;;;11.60;99.90;;;;;;5071155;28;20052;-35
2023/10/29 04:45:15;;;;;;;1.75;0.45;;;11.60;99.90;;;;;;5067912;28;20048;-35
2023/10/29 04:47:40;;;;;;;1.70;0.35;;;11.70;99.90;;;;;;5061695;28;20185;-35
2023/10/29 04:50:06;;;;;;;4.38;0.40;;;11.90;99.90;;;;;;5067923;28;20048;-35
2023/10/29 04:52:33;;;;;;;2.10;0.30;;;12.10;99.90;;;;;;5055833;28;20517;-35
2023/10/29 04:55:00;;;;;;;3.55;0.65;;;12.20;99.90;;;;;;5074731;28;20048;-35
2023/10/29 04:57:29;;;;;;;2.83;0.30;;;12.40;99.90;;;;;;5076011;28;20323;-35
2023/10/29 04:59:55;;;;;;;1.08;0.20;;;12.50;99.90;;;;;;5077793;28;20061;-35
2023/10/29 05:02:22;;;;;;;1.25;0.30;;;12.60;99.90;;;;;;5074597;28;20100;-35
2023/10/29 05:04:51;;;;;;;0.98;0.22;;;12.70;99.90;;;;;;5067183;28;20148;-35
2023/10/29 05:07:17;;;;;;;4.07;0.20;;;12.70;99.90;;;;;;5068579;28;20061;-34
2023/10/29 05:09:43;;;;;;;4.15;0.40;;;12.70;99.90;;;;;;5068843;28;20146;-36
2023/10/29 05:12:09;;;;;;;1.40;0.30;;;12.70;99.90;;;;;;5068052;28;20505;-36
2023/10/29 05:14:34;;;;;;;1.27;0.20;;;12.60;99.90;;;;;;5076204;28;20060;-35
2023/10/29 05:17:00;;;;;;;2.25;0.55;;;12.60;99.90;;;;;;5064180;28;20080;-34
2023/10/29 05:19:26;;;;;;;2.83;0.20;;;12.60;99.90;;;;;;5061862;28;20056;-35
2023/10/29 05:21:52;;;;;;;1.98;0.22;;;12.60;99.90;;;;;;5062906;28;20127;-35
2023/10/29 05:24:17;;;;;;;3.10;0.40;;;12.70;99.90;;;;;;5063728;28;20060;-35
2023/10/29 05:26:43;;;;;;;1.70;0.30;;;12.70;99.90;;;;;;5071753;28;20514;-35
2023/10/29 05:29:09;;;;;;;1.95;0.30;;;12.70;99.90;;;;;;5070677;28;20398;-35
2023/10/29 05:31:34;;;;;;;2.42;0.32;;;12.70;99.90;;;;;;5071818;28;20126;-35
2023/10/29 05:34:01;;;;;;;3.05;0.30;;;12.70;99.90;;;;;;5070755;28;20052;-36
2023/10/29 05:36:27;;;;;;;5.47;0.45;;;12.70;99.90;;;;;;5071551;28;20418;-35
2023/10/29 05:38:53;;;;;;;1.90;0.20;;;12.70;99.90;;;;;;5071590;28;20581;-36
2023/10/29 05:41:19;;;;;;;4.43;0.40;;;12.70;99.90;;;;;;5070545;28;20079;-35
2023/10/29 05:43:45;;;;;;;0.75;0.20;;;12.70;99.90;;;;;;5071751;28;20591;-35
2023/10/29 05:46:14;;;;;;;1.02;0.22;;;12.70;99.90;;;;;;5071250;28;20052;-35
2023/10/29 05:48:40;;;;;;;1.23;0.30;;;12.70;99.90;;;;;;5071705;28;20079;-35
2023/10/29 05:51:06;;;;;;;2.15;0.30;;;12.80;99.90;;;;;;5071008;28;20052;-35
2023/10/29 05:53:32;;;;;;;1.10;0.30;;;12.80;99.90;;;;;;5071629;28;20102;-35
2023/10/29 05:55:57;;;;;;;0.57;0.20;;;12.80;99.90;;;;;;5071759;28;20137;-35
2023/10/29 05:58:26;;;;;;;1.20;0.22;;;12.80;99.90;;;;;;5071321;28;20053;-35
2023/10/29 06:00:52;;;;;;;0.77;0.20;;;12.70;99.90;;;;;;5071607;28;20493;-35
2023/10/29 06:03:18;;;;;;;1.60;0.10;;;12.80;99.90;;;;;;5070532;28;20087;-35
2023/10/29 06:05:43;;;;;;;0.90;0.30;;;12.70;99.90;;;;;;5071431;28;20080;-35
2023/10/29 06:08:09;;;;;;;1.73;0.30;;;12.70;99.90;;;;;;5049373;28;20059;-35
2023/10/29 06:10:34;;;;;;;2.28;0.20;;;12.70;99.90;;;;;;5065147;28;20073;-35
2023/10/29 06:13:00;;;;;;;2.08;0.30;;;12.80;99.90;;;;;;5071295;28;20079;-35
2023/10/29 06:15:26;;;;;;;2.40;0.20;;;12.80;99.90;;;;;;5071112;28;20058;-35
2023/10/29 06:17:54;;;;;;;1.13;0.20;;;12.80;99.90;;;;;;5071185;28;20052;-35
2023/10/29 06:20:21;;;;;;;2.42;0.20;;;12.70;99.90;;;;;;5070710;28;20052;-35
2023/10/29 06:22:50;;;;;;;2.22;0.30;;;12.80;99.90;;;;;;5071085;28;20056;-35
2023/10/29 06:25:17;;;;;;;1.20;0.20;;;12.70;99.90;;;;;;5070291;28;20690;-35
2023/10/29 06:27:42;;;;;;;0.88;0.20;;;12.80;99.90;;;;;;5070997;28;20068;-35
2023/10/29 06:30:11;;;;;;;1.02;0.20;;;12.80;99.90;;;;;;5069887;28;20425;-34
2023/10/29 06:32:36;;;;;;;2.13;0.32;;;12.80;99.90;;;;;;5070096;28;20528;-35
2023/10/29 06:35:03;;;;;;;2.83;0.45;;;12.80;99.90;;;;;;5070734;28;20445;-35
2023/10/29 06:37:29;;;;;;;3.38;0.30;;;12.70;99.90;;;;;;5070404;28;20418;-35
2023/10/29 06:39:55;;;;;;;2.30;0.20;;;12.70;99.90;;;;;;5052897;28;20101;-35
2023/10/29 06:42:20;;;;;;;1.90;0.30;;;12.70;99.90;;;;;;5069495;28;20048;-35
2023/10/29 06:44:46;;;;;;;4.18;0.30;;;12.70;99.90;;;;;;5071167;28;20414;-35
2023/10/29 06:47:13;;;;;;;2.53;0.30;;;12.70;99.90;;;;;;5069975;28;20056;-35
2023/10/29 06:49:39;;;;;;;2.20;0.28;;;12.70;99.90;;;;;;5052474;28;20075;-35
2023/10/29 06:52:06;;;;;;;1.52;0.30;;;12.70;99.90;;;;;;5070303;28;20498;-35
2023/10/29 06:54:32;;;;;;;1.85;0.50;;;12.70;99.90;;;;;;5070042;28;20057;-35
2023/10/29 06:56:58;;;;;;;2.38;0.30;;;12.60;99.90;;;;;;5070453;28;20053;-36
2023/10/29 06:59:23;;;;;;;3.33;0.57;;;12.60;99.90;;;;;;5051984;28;20134;-35
2023/10/29 07:01:50;;;;;;;2.65;0.40;;;12.60;99.90;;;;;;5070025;28;20050;-35
2023/10/29 07:04:16;;;;;;;4.18;0.40;;;12.60;99.90;;;;;;5069554;28;20478;-35
2023/10/29 07:06:42;;;;;;;2.42;0.22;;;12.70;99.90;;;;;;5070278;28;20043;-35
2023/10/29 07:09:08;;;;;;;1.67;0.40;;;12.80;99.90;;;;;;5070017;28;20398;-35
2023/10/29 07:11:33;;;;;;;2.50;0.30;;;12.70;99.90;;;;;;5069550;28;20063;-35
2023/10/29 07:13:59;;;;;;;2.72;0.70;;;12.70;99.90;;;;;;5070173;28;20048;-35
2023/10/29 07:16:24;;;;;;;1.85;0.30;;;12.80;99.90;;;;;;5069292;28;20049;-36
2023/10/29 07:18:50;;;;;;;2.33;0.30;;;12.80;99.90;;;;;;5070096;28;20131;-36
2023/10/29 07:21:16;;;;;;;2.33;0.30;;;12.80;99.90;;;;;;5069190;28;20123;-35
2023/10/29 07:23:41;;;;;;;1.38;0.20;;;12.80;99.90;;;;;;5070221;28;20387;-35
2023/10/29 07:26:07;;;;;;;3.72;0.32;;;12.80;99.90;;;;;;5069852;28;20414;-35
2023/10/29 07:28:34;;;;;;;1.67;0.38;;;12.80;99.90;;;;;;5069505;28;20060;-36
2023/10/29 07:31:01;;;;;;;4.88;0.50;;;12.80;99.90;;;;;;5069385;28;20135;-36
2023/10/29 07:33:27;;;;;;;3.75;0.40;;;12.80;99.90;;;;;;5065818;28;20502;-35
2023/10/29 07:35:53;;;;;;;1.92;0.32;;;12.80;99.90;;;;;;5058019;28;20502;-35
2023/10/29 07:38:19;;;;;;;1.48;0.30;;;12.80;99.90;;;;;;5069019;28;20091;-35
2023/10/29 07:40:44;;;;;;;2.03;0.40;;;12.80;99.90;;;;;;5069608;28;20056;-36
2023/10/29 07:43:10;;;;;;;2.15;0.30;;;12.80;99.90;;;;;;5069767;28;20113;-35
2023/10/29 07:45:36;;;;;;;4.15;0.55;;;12.70;99.90;;;;;;5068989;28;20052;-36
2023/10/29 07:48:02;;;;;;;2.50;0.40;;;12.70;99.90;;;;;;5069787;28;20048;-36
2023/10/29 07:50:28;;;;;;;1.98;0.30;;;12.70;99.90;;;;;;5068946;28;20060;-36
2023/10/29 07:52:54;;;;;;;2.80;0.30;;;12.60;99.90;;;;;;5069762;28;20090;-36
2023/10/29 07:55:19;;;;;;;1.20;0.32;;;12.60;99.90;;;;;;5069017;28;20075;-35
2023/10/29 07:57:45;;;;;;;3.00;0.32;;;12.60;99.90;;;;;;5069226;28;20044;-36
2023/10/29 08:00:14;;;;;;;2.22;0.40;;;12.70;99.90;;;;;;5068614;28;20056;-35
2023/10/29 08:02:44;;;;;;;2.35;0.47;;;12.70;99.90;;;;;;5067174;28;20133;-35
2023/10/29 08:05:12;;;;;;;4.10;0.60;;;12.70;99.90;;;;;;5069493;28;20059;-36
2023/10/29 08:07:39;;;;;;;4.35;0.30;;;12.70;99.90;;;;;;5068842;28;20127;-36
2023/10/29 08:10:05;;;;;;;2.40;0.60;;;12.70;99.90;;;;;;5069297;28;20478;-36
2023/10/29 08:12:31;;;;;;;2.08;0.30;;;12.70;99.90;;;;;;5067717;28;20518;-36
2023/10/29 08:14:57;;;;;;;2.40;0.30;;;12.70;99.90;;;;;;5069593;28;20051;-35
2023/10/29 08:17:23;;;;;;;1.90;0.30;;;12.80;99.90;;;;;;5068605;28;20422;-35
2023/10/29 08:19:49;;;;;;;2.83;0.35;;;12.80;99.90;;;;;;5069352;28;20136;-36
2023/10/29 08:22:14;;;;;;;1.83;0.40;;;12.80;99.90;;;;;;5069318;28;20067;-36
2023/10/29 08:24:40;;;;;;;6.43;0.40;;;12.90;99.90;;;;;;5070115;28;20139;-36
2023/10/29 08:27:08;;;;;;;3.78;0.40;;;12.90;99.90;;;;;;5089267;28;20080;-38
2023/10/29 08:29:41;;;;;;;5.35;0.47;;;12.90;99.90;;;;;;5088592;28;20048;-35
2023/10/29 08:32:07;;;;;;;3.53;0.35;;;13.00;99.90;;;;;;5077952;28;20490;-36
2023/10/29 08:34:33;;;;;;;3.15;0.63;;;13.00;99.90;;;;;;5070462;28;20079;-35
2023/10/29 08:36:58;;;;;;;2.35;0.30;;;13.00;99.90;;;;;;5089202;28;20421;-36
2023/10/29 08:39:24;;;;;;;1.88;0.40;;;13.00;99.90;;;;;;5088863;28;20063;-35
2023/10/29 08:41:50;;;;;;;1.80;0.28;;;13.10;99.90;;;;;;5089110;28;20064;-36
2023/10/29 08:44:19;;;;;;;3.70;0.30;;;13.10;99.90;;;;;;5089262;28;20060;-36
2023/10/29 08:46:48;;;;;;;4.68;0.50;;;13.20;99.90;;;;;;5088699;28;20066;-36
2023/10/29 08:49:14;;;;;;;2.08;0.30;;;13.20;99.90;;;;;;5089091;28;20056;-36
2023/10/29 08:51:40;;;;;;;2.08;0.35;;;13.20;99.90;;;;;;5088638;28;20475;-35
2023/10/29 08:54:06;;;;;;;2.78;0.50;;;13.20;99.90;;;;;;5089669;28;20048;-36
2023/10/29 08:56:36;;;;;;;2.40;0.40;;;13.30;99.90;;;;;;5092317;28;20054;-36
2023/10/29 08:59:04;;;;;;;2.25;0.40;;;13.30;99.90;;;;;;5093010;28;20569;-35
2023/10/29 09:01:30;;;;;;;3.20;0.50;;;13.40;99.90;;;;;;5091886;28;20079;-36
2023/10/29 09:03:55;;;;;;;3.47;0.40;;;13.50;99.90;;;;;;5078213;28;20110;-36
2023/10/29 09:06:21;;;;;;;3.30;0.60;;;13.60;99.90;;;;;;5093012;28;20051;-36
2023/10/29 09:08:47;;;;;;;5.28;0.50;;;13.70;99.90;;;;;;5091904;28;20143;-36
2023/10/29 09:11:16;;;;;;;1.95;0.43;;;13.70;99.90;;;;;;5092201;28;20506;-36
2023/10/29 09:13:41;;;;;;;3.38;0.60;;;13.70;99.90;;;;;;5092030;28;20059;-35
2023/10/29 09:16:07;;;;;;;5.55;0.60;;;13.60;99.90;;;;;;5092649;28;20493;-36
2023/10/29 09:18:33;;;;;;;3.35;0.40;;;13.60;99.90;;;;;;5084138;28;20048;-36
2023/10/29 09:20:59;;;;;;;3.88;0.60;;;13.60;99.90;;;;;;5092477;28;20062;-36
2023/10/29 09:23:24;;;;;;;4.35;0.60;;;13.60;99.90;;;;;;5091867;28;20133;-35
2023/10/29 09:25:50;;;;;;;4.93;0.60;;;13.50;99.90;;;;;;5080767;28;20498;-36
2023/10/29 09:28:16;;;;;;;3.97;0.60;;;13.50;99.90;;;;;;5072205;28;20083;-36
2023/10/29 09:30:42;;;;;;;2.75;0.40;;;13.50;99.90;;;;;;5071020;28;20063;-35
2023/10/29 09:33:08;;;;;;;4.22;0.68;;;13.60;99.90;;;;;;5071899;28;20063;-36
2023/10/29 09:35:37;;;;;;;5.63;1.02;;;13.60;99.90;;;;;;5071499;28;20479;-36
2023/10/29 09:38:03;;;;;;;2.92;0.60;;;13.60;99.90;;;;;;5071858;28;20113;-35
2023/10/29 09:40:29;;;;;;;4.85;0.80;;;13.60;99.90;;;;;;5071349;28;20052;-35
2023/10/29 09:42:59;;;;;;;6.97;0.90;;;13.60;99.90;;;;;;5071765;28;20054;-36
2023/10/29 09:45:26;;;;;;;3.50;0.88;;;13.60;99.90;;;;;;5071669;28;20083;-36
2023/10/29 09:47:58;;;;;;;4.72;0.60;;;13.60;99.90;;;;;;5071534;28;20101;-36
2023/10/29 09:50:24;;;;;;;6.18;0.80;;;13.70;99.90;;;;;;5072056;28;20493;-37
2023/10/29 09:52:51;;;;;;;3.17;0.60;;;13.70;99.90;;;;;;5070549;28;20113;-36
2023/10/29 09:55:20;;;;;;;5.78;0.70;;;13.70;99.90;;;;;;5053172;28;20055;-36
2023/10/29 09:57:46;;;;;;;3.90;0.75;;;13.70;99.90;;;;;;5068502;28;20472;-36
2023/10/29 10:00:13;;;;;;;4.65;0.52;;;13.70;99.90;;;;;;5071466;28;20067;-35
2023/10/29 10:03:09;;;;;;;7.82;1.10;;;13.70;99.90;;;;;;5070513;28;20583;-36
2023/10/29 10:05:35;;;;;;;4.57;0.85;;;13.70;99.90;;;;;;5056153;28;20131;-35
2023/10/29 10:08:01;;;;;;;7.75;0.73;;;13.70;99.90;;;;;;5071269;28;20572;-36
2023/10/29 10:10:40;;;;;;;4.13;0.73;;;13.70;99.90;;;;;;5071285;28;20088;-36
2023/10/29 10:13:06;;;;;;;4.18;0.65;;;13.80;99.90;;;;;;5052888;28;20052;-36
2023/10/29 10:15:33;;;;;;;5.35;0.88;;;13.90;99.90;;;;;;5071196;28;20055;-36
2023/10/29 10:18:00;;;;;;;4.57;0.80;;;13.90;99.90;;;;;;5067186;28;20573;-36
2023/10/29 10:20:28;;;;;;;4.80;0.80;;;13.90;99.90;;;;;;5071311;28;20506;-36
2023/10/29 10:23:00;;;;;;;2.35;0.60;;;13.90;99.90;;;;;;5070387;28;20464;-35
2023/10/29 10:25:27;;;;;;;4.65;0.80;;;13.80;99.90;;;;;;5070946;28;20153;-37
2023/10/29 10:27:57;;;;;;;5.38;0.75;;;13.80;99.90;;;;;;5069256;28;20048;-36
2023/10/29 10:30:27;;;;;;;4.18;0.85;;;13.80;99.90;;;;;;5070772;28;20495;-36
2023/10/29 10:33:18;;;;;;;4.90;0.65;;;13.80;99.90;;;;;;5069868;28;20046;-36
2023/10/29 10:35:51;;;;;;;6.07;0.85;;;13.80;99.90;;;;;;5057225;28;20049;-36
2023/10/29 10:38:19;;;;;;;;;;;13.90;99.90;;;;;;5070898;28;20060;-36
2023/10/29 10:40:46;;;;;;;4.88;0.82;;;14.00;99.90;;;;;;5070087;28;20301;-35
2023/10/29 10:43:18;;;;;;;7.30;0.80;;;14.00;99.90;;;;;;5070748;28;20072;-35
2023/10/29 10:45:49;;;;;;;6.53;0.83;;;14.10;99.90;;;;;;5070639;28;20055;-36
2023/10/29 10:48:16;;;;;;;6.65;0.90;;;14.10;99.90;;;;;;5070069;28;20052;-44
2023/10/29 10:50:42;;;;;;;4.68;0.63;;;14.10;99.90;;;;;;5070424;28;20060;-35
2023/10/29 10:53:09;;;;;;;6.82;1.25;;;14.00;99.90;;;;;;5052204;28;20044;-35
2023/10/29 10:55:35;;;;;;;8.60;0.90;;;14.00;99.90;;;;;;5070084;28;20064;-36
2023/10/29 10:58:03;;;;;;;3.85;0.65;;;14.00;99.90;;;;;;5069823;28;20056;-35
2023/10/29 11:00:32;;;;;;;4.50;0.90;;;14.00;99.90;;;;;;5070221;28;20067;-36
2023/10/29 11:02:59;;;;;;;2.90;0.50;;;14.00;99.90;;;;;;5069562;28;20675;-35
2023/10/29 11:05:30;;;;;;;4.43;0.77;;;14.00;99.90;;;;;;5070371;28;20105;-36
2023/10/29 11:08:00;;;;;;;4.72;0.40;;;14.20;99.90;;;;;;5069637;28;20414;-35
2023/10/29 11:10:26;;;;;;;3.13;0.85;;;14.30;99.90;;;;;;5070471;28;20064;-35
2023/10/29 11:12:52;;;;;;;4.20;0.75;;;14.50;99.90;;;;;;5069419;28;20040;-35
2023/10/29 11:15:19;;;;;;;4.88;0.70;;;14.60;99.90;;;;;;5070192;28;20055;-36
2023/10/29 11:18:01;;;;;;;6.20;0.55;;;14.70;99.90;;;;;;5061711;28;20118;-36
2023/10/29 11:20:49;;;;;;;3.60;0.50;;;14.70;99.90;;;;;;5069352;28;20052;-36
2023/10/29 11:23:16;;;;;;;4.88;0.55;;;14.70;99.90;;;;;;5069445;28;20052;-36
2023/10/29 11:25:42;;;;;;;7.85;0.65;;;14.70;99.90;;;;;;5078483;28;20066;-36
2023/10/29 11:28:24;;;;;;;5.57;0.82;;;14.70;99.90;;;;;;5069248;28;20109;-35
2023/10/29 11:31:13;;;;;;;4.05;0.38;;;14.70;99.90;;;;;;5059518;28;20057;-36
2023/10/29 11:33:40;;;;;;;4.95;0.50;;;14.60;99.90;;;;;;5047814;28;20478;-35
2023/10/29 11:36:38;;;;;;;2.15;0.50;;;14.60;99.90;;;;;;5068528;28;20525;-36
2023/10/29 11:39:19;;;;;;;4.40;0.60;;;14.60;99.90;;;;;;5069261;28;20098;-37
2023/10/29 11:41:48;;;;;;;5.63;0.50;;;14.50;99.90;;;;;;5069317;28;20052;-35
2023/10/29 11:44:25;;;;;;;6.47;0.95;;;14.50;99.90;;;;;;5069758;28;20059;-36
2023/10/29 11:47:02;;;;;;;3.40;0.40;;;14.50;99.90;;;;;;5069215;28;20037;-36
2023/10/29 11:49:49;;;;;;;4.35;0.50;;;14.40;99.90;;;;;;5037674;28;20057;-35
2023/10/29 11:52:15;;;;;;;3.00;0.60;;;14.40;99.90;;;;;;5058826;28;20086;-37
2023/10/29 11:54:40;;;;;;;4.72;0.70;;;14.30;99.90;;;;;;5066279;28;20140;-36
2023/10/29 11:57:06;;;;;;;7.20;0.65;;;14.30;99.90;;;;;;5069253;28;20052;-35
2023/10/29 11:59:32;;;;;;;4.72;0.38;;;14.30;99.90;;;;;;5069632;28;20045;-35
2023/10/29 12:01:59;;;;;;;5.28;0.70;;;14.40;99.90;;;;;;5069078;28;20131;-36
2023/10/29 12:04:31;;;;;;;6.53;0.68;;;14.40;99.90;;;;;;5069672;28;20052;-35
2023/10/29 12:06:57;;;;;;;5.18;0.60;;;14.40;99.90;;;;;;5069361;28;20135;-35
2023/10/29 12:09:25;;;;;;;6.07;0.50;;;14.40;99.90;;;;;;5069364;28;20128;-35
2023/10/29 12:11:52;;;;;;;10.80;0.88;;;14.40;99.90;;;;;;5069567;28;20044;-35
2023/10/29 12:14:43;;;;;;;9.98;1.17;;;14.40;99.90;;;;;;5068840;28;20049;-35
2023/10/29 12:17:09;;;;;;;6.20;0.77;;;14.30;99.90;;;;;;5068623;28;20045;-35
2023/10/29 12:19:36;;;;;;;5.53;0.60;;;14.30;99.90;;;;;;5069379;28;20059;-35
2023/10/29 12:22:03;;;;;;;6.75;1.05;;;14.30;99.90;;;;;;5068213;28;20056;-35
2023/10/29 12:24:30;;;;;;;5.47;0.57;;;14.30;99.90;;;;;;5068784;28;20109;-35
2023/10/29 12:26:57;;;;;;;5.72;0.88;;;14.20;99.90;;;;;;5067023;28;20475;-35
2023/10/29 12:29:23;;;;;;;4.55;0.57;;;14.20;99.90;;;;;;5070420;28;20122;-35
2023/10/29 12:31:48;;;;;;;5.32;0.90;;;14.20;99.90;;;;;;5073348;28;20045;-35
2023/10/29 12:34:15;;;;;;;7.60;0.60;;;14.10;99.90;;;;;;5072557;28;20044;-35
2023/10/29 12:36:49;;;;;;;8.25;1.05;;;14.10;99.90;;;;;;5073294;28;20048;-35
2023/10/29 12:39:15;;;;;;;5.90;0.70;;;14.10;99.90;;;;;;5066671;28;20055;-35
2023/10/29 12:41:40;;;;;;;5.97;0.82;;;14.10;99.90;;;;;;5073430;28;20509;-35
2023/10/29 12:44:15;;;;;;;4.57;0.80;;;14.00;99.90;;;;;;5053816;28;20048;-35
2023/10/29 12:46:50;;;;;;;5.80;0.80;;;14.00;99.90;;;;;;5073189;28;20052;-34